Time;durP1;ratioP1;P1;durP2;ratioP2;P2;SDS_P1;SDS_P2;PMS_P1;PMS_P2;Temp;Humidity;BMP_temperature;BMP_pressure;BME280_temperature;BME280_humidity;BME280_pressure;Samples;Min_cycle;Max_cycle;Signal;HPM_P1;HPM_P2
2022/08/04 00:01:04;;;;;;;10.10;9.25;;;;;;;19.92;100.00;99720.23;1650180;86;21257;-73
2022/08/04 00:03:41;;;;;;;9.33;8.43;;;;;;;19.92;100.00;99713.96;1650444;86;20965;-78
2022/08/04 00:06:32;;;;;;;9.10;8.28;;;;;;;19.92;100.00;99722.96;1659004;85;21067;-78
2022/08/04 00:09:09;;;;;;;9.35;8.40;;;;;;;19.95;100.00;99724.28;1679120;84;21053;-77
2022/08/04 00:11:40;;;;;;;10.50;9.43;;;;;;;19.99;100.00;99717.88;1665038;85;21073;-76
2022/08/04 00:14:14;;;;;;;9.05;8.25;;;;;;;20.01;100.00;99719.73;1667969;85;21089;-73
2022/08/04 00:16:42;;;;;;;9.78;8.88;;;;;;;20.01;100.00;99723.02;1679038;85;21697;-74
2022/08/04 00:19:20;;;;;;;11.33;9.73;;;;;;;20.00;100.00;99727.66;1686109;84;21550;-72
2022/08/04 00:21:54;;;;;;;9.58;8.68;;;;;;;20.05;100.00;99725.36;1707492;83;21668;-76
2022/08/04 00:24:22;;;;;;;10.23;9.23;;;;;;;20.03;100.00;99714.78;1681766;83;20993;-73
2022/08/04 00:26:48;;;;;;;11.28;9.65;;;;;;;20.00;100.00;99724.94;1679248;84;22259;-72
2022/08/04 00:29:15;;;;;;;11.33;8.80;;;;;;;19.93;100.00;99717.75;1624680;86;21059;-71
2022/08/04 00:31:42;;;;;;;10.70;8.40;;;;;;;19.97;100.00;99720.11;1681862;85;21050;-73
2022/08/04 00:34:11;;;;;;;14.10;8.85;;;;;;;19.99;100.00;99716.52;1662938;86;21024;-73
2022/08/04 00:36:41;;;;;;;9.45;8.50;;;;;;;19.98;100.00;99714.09;1662904;85;21516;-74
2022/08/04 00:39:12;;;;;;;9.95;8.98;;;;;;;20.01;100.00;99721.09;1681504;84;21195;-73
2022/08/04 00:42:03;;;;;;;10.95;9.18;;;;;;;20.05;100.00;99717.76;1679221;84;21003;-75
2022/08/04 00:44:57;;;;;;;10.75;9.28;;;;;;;20.05;100.00;99717.17;1678881;85;21025;-73
2022/08/04 00:47:48;;;;;;;9.80;8.80;;;;;;;20.08;100.00;99718.48;1709586;83;21051;-73
2022/08/04 00:50:26;;;;;;;10.45;9.35;;;;;;;20.13;100.00;99717.81;1711530;83;21071;-74
2022/08/04 00:53:15;;;;;;;13.18;9.63;;;;;;;20.13;100.00;99719.17;1706900;83;21269;-80
2022/08/04 00:55:57;;;;;;;10.68;8.38;;;;;;;20.13;100.00;99724.63;1711244;83;21055;-74
2022/08/04 00:58:46;;;;;;;9.55;8.60;;;;;;;20.17;100.00;99728.34;1710613;83;20995;-77
2022/08/04 01:01:42;;;;;;;8.95;8.15;;;;;;;20.22;100.00;99729.58;1690802;83;21046;-75
2022/08/04 01:04:35;;;;;;;9.00;8.25;;;;;;;20.23;100.00;99735.30;1690328;83;22150;-76
2022/08/04 01:07:34;;;;;;;11.15;8.93;;;;;;;20.20;100.00;99739.20;1679074;84;22626;-76
2022/08/04 01:10:20;;;;;;;11.35;9.95;;;;;;;20.13;100.00;99746.48;1685485;84;21495;-75
2022/08/04 01:13:05;;;;;;;9.85;8.85;;;;;;;20.14;100.00;99748.66;1667123;85;21098;-75
2022/08/04 01:15:55;;;;;;;10.58;9.05;;;;;;;20.15;100.00;99748.87;1679367;84;21285;-74
2022/08/04 01:18:42;;;;;;;11.15;10.20;;;;;;;20.16;100.00;99754.04;1658054;84;21040;-76
2022/08/04 01:21:40;;;;;;;14.00;10.15;;;;;;;20.14;100.00;99752.20;1648403;87;22103;-75
2022/08/04 01:24:42;;;;;;;12.30;10.03;;;;;;;20.17;100.00;99754.84;1647750;87;21033;-73
2022/08/04 01:27:12;;;;;;;12.18;10.10;;;;;;;20.17;100.00;99750.75;1629560;85;21056;-74
2022/08/04 01:29:49;;;;;;;11.63;9.65;;;;;;;20.16;100.00;99755.96;1678126;85;20997;-74
2022/08/04 01:32:41;;;;;;;12.47;11.18;;;;;;;20.13;100.00;99753.86;1678029;83;21105;-73
2022/08/04 01:35:19;;;;;;;11.22;9.93;;;;;;;20.10;100.00;99753.91;1677379;85;21127;-74
2022/08/04 01:38:12;;;;;;;15.30;11.45;;;;;;;20.10;100.00;99751.73;1662512;84;21297;-73
2022/08/04 01:40:39;;;;;;;12.33;11.12;;;;;;;20.04;100.00;99749.72;1695628;82;28666;-75
2022/08/04 01:43:05;;;;;;;11.53;10.20;;;;;;;20.03;100.00;99750.27;1707391;83;21108;-74
2022/08/04 01:45:34;;;;;;;15.10;11.75;;;;;;;20.05;100.00;99748.57;1709488;84;21060;-72
2022/08/04 01:48:01;;;;;;;11.40;10.20;;;;;;;20.04;100.00;99751.08;1719744;81;21181;-77
2022/08/04 01:50:30;;;;;;;11.88;10.55;;;;;;;20.03;100.00;99748.09;1719524;83;21608;-80
2022/08/04 01:52:57;;;;;;;12.70;11.40;;;;;;;20.00;100.00;99745.41;1678240;84;21066;-77
2022/08/04 01:55:23;;;;;;;14.20;11.83;;;;;;;20.00;100.00;99745.41;1651973;86;21517;-78
2022/08/04 01:57:51;;;;;;;12.78;11.45;;;;;;;20.02;100.00;99749.20;1650623;85;21072;-77
2022/08/04 02:00:22;;;;;;;15.23;10.88;;;;;;;20.02;100.00;99749.20;1648052;87;21017;-76
2022/08/04 02:02:49;;;;;;;12.35;11.25;;;;;;;20.00;100.00;99747.33;1646885;87;21005;-77
2022/08/04 02:05:18;;;;;;;13.32;11.18;;;;;;;19.95;100.00;99751.58;1627632;87;21597;-78
2022/08/04 02:08:18;;;;;;;12.58;11.48;;;;;;;19.86;100.00;99750.13;1651899;85;21628;-78
2022/08/04 02:11:18;;;;;;;17.25;12.70;;;;;;;19.87;100.00;99749.57;1676750;85;20992;-77
2022/08/04 02:13:53;;;;;;;12.82;11.57;;;;;;;19.90;100.00;99745.66;1683247;85;21161;-79
2022/08/04 02:16:44;;;;;;;16.30;11.10;;;;;;;19.90;100.00;99740.78;1690260;84;21008;-77
2022/08/04 02:19:32;;;;;;;12.28;11.12;;;;;;;19.92;100.00;99743.44;1644733;86;20976;-77
2022/08/04 02:22:08;;;;;;;15.63;10.65;;;;;;;19.96;100.00;99741.70;1651565;86;21036;-74
2022/08/04 02:24:40;;;;;;;12.73;11.50;;;;;;;19.99;100.00;99737.00;1652037;86;21088;-76
2022/08/04 02:27:07;;;;;;;14.10;12.67;;;;;;;20.02;100.00;99733.64;1626564;86;21053;-79
2022/08/04 02:29:44;;;;;;;15.18;13.00;;;;;;;20.03;100.00;99736.62;1650579;86;21177;-78
2022/08/04 02:32:18;;;;;;;16.77;14.95;;;;;;;19.99;100.00;99737.00;1706019;83;21534;-77
2022/08/04 02:35:06;;;;;;;13.03;11.65;;;;;;;19.97;100.00;99739.22;1711522;83;21070;-78
2022/08/04 02:37:33;;;;;;;12.90;11.60;;;;;;;19.98;100.00;99739.47;1710514;82;21568;-75
2022/08/04 02:40:04;;;;;;;12.20;10.90;;;;;;;19.90;100.00;99733.38;1718165;83;21120;-81
2022/08/04 02:42:32;;;;;;;13.88;12.53;;;;;;;19.83;100.00;99737.11;1721543;83;20969;-82
2022/08/04 02:45:01;;;;;;;16.67;13.68;;;;;;;19.80;100.00;99733.64;1721684;83;21036;-82
2022/08/04 02:47:31;;;;;;;18.07;12.73;;;;;;;19.83;100.00;99737.66;1721732;83;21387;-83
2022/08/04 02:49:58;;;;;;;11.95;10.85;;;;;;;19.83;100.00;99736.30;1682483;84;21422;-82
2022/08/04 02:52:25;;;;;;;15.83;13.48;;;;;;;19.84;100.00;99734.63;1671100;85;21009;-84
2022/08/04 02:54:55;;;;;;;13.95;12.55;;;;;;;19.82;100.00;99734.13;1682516;84;20938;-82
2022/08/04 02:57:24;;;;;;;26.73;15.58;;;;;;;19.79;100.00;99730.66;1667511;84;21008;-83
2022/08/04 03:00:17;;;;;;;15.58;12.82;;;;;;;19.74;100.00;99721.78;1557379;88;20878;-84
2022/08/04 03:03:21;;;;;;;16.35;14.65;;;;;;;19.74;100.00;99729.97;1620423;87;21071;-84
2022/08/04 03:06:13;;;;;;;19.55;15.32;;;;;;;19.74;100.00;99729.97;1622413;88;21040;-82
2022/08/04 03:09:11;;;;;;;15.20;13.70;;;;;;;19.73;100.00;99725.63;1688414;84;20965;-81
2022/08/04 03:12:05;;;;;;;16.07;13.95;;;;;;;19.74;100.00;99729.41;1692406;84;21005;-83
2022/08/04 03:14:52;;;;;;;17.05;14.38;;;;;;;19.76;100.00;99733.98;1712648;83;21200;-83
2022/08/04 03:17:52;;;;;;;18.67;15.25;;;;;;;19.81;100.00;99734.42;1714939;83;20889;-84
2022/08/04 03:20:57;;;;;;;17.05;13.38;;;;;;;19.81;100.00;99727.05;1721161;83;21224;-83
2022/08/04 03:23:41;;;;;;;16.45;14.40;;;;;;;19.86;100.00;99734.30;1675478;85;21336;-83
2022/08/04 03:26:56;;;;;;;14.70;11.73;;;;;;;19.90;100.00;99731.23;1653537;84;21054;-81
2022/08/04 03:30:01;;;;;;;18.10;16.32;;;;;;;19.91;100.00;99731.45;1644943;84;21015;-83
2022/08/04 03:33:07;;;;;;;19.23;17.35;;;;;;;19.89;100.00;99726.32;1685287;84;20878;-82
2022/08/04 03:36:05;;;;;;;20.35;15.88;;;;;;;19.84;100.00;99725.64;1682842;84;21112;-82
2022/08/04 03:39:04;;;;;;;27.35;17.98;;;;;;;19.81;100.00;99731.14;1661960;84;20977;-80
2022/08/04 03:42:01;;;;;;;19.77;17.50;;;;;;;19.81;100.00;99731.14;1642190;86;21752;-81
2022/08/04 03:45:05;;;;;;;20.45;18.27;;;;;;;19.84;100.00;99733.27;1656360;86;21091;-83
2022/08/04 03:48:13;;;;;;;21.70;17.55;;;;;;;19.89;100.00;99737.24;1655812;85;21116;-82
2022/08/04 03:54:01;;;;;;;20.55;18.45;;;;;;;19.99;100.00;99744.38;1685785;84;20957;-82
2022/08/04 03:56:41;;;;;;;20.40;16.90;;;;;;;20.03;100.00;99743.45;1681515;85;20981;-81
2022/08/04 03:59:43;;;;;;;19.77;17.00;;;;;;;19.97;100.00;99737.85;1682526;84;21016;-82
2022/08/04 04:02:59;;;;;;;23.67;18.82;;;;;;;19.95;100.00;99748.85;1659353;85;21033;-81
2022/08/04 04:06:23;;;;;;;20.97;17.25;;;;;;;19.97;100.00;99746.05;1650980;85;22358;-84
2022/08/04 04:09:11;;;;;;;17.70;15.48;;;;;;;19.94;100.00;99746.67;1681975;85;20878;-80
2022/08/04 04:12:28;;;;;;;22.82;20.17;;;;;;;19.96;100.00;99757.27;1681363;85;21053;-82
2022/08/04 04:15:38;;;;;;;20.37;16.75;;;;;;;20.00;100.00;99748.70;1681630;84;21167;-79
2022/08/04 04:18:41;;;;;;;20.17;16.73;;;;;;;20.03;100.00;99755.73;1682587;84;20917;-80
2022/08/04 04:21:28;;;;;;;20.40;18.05;;;;;;;20.00;100.00;99752.23;1683083;84;21151;-81
2022/08/04 04:24:23;;;;;;;22.77;18.90;;;;;;;19.99;100.00;99760.20;1683167;85;21089;-86
2022/08/04 04:27:11;;;;;;;20.00;18.00;;;;;;;19.96;100.00;99757.27;1665699;85;21467;-83
2022/08/04 04:30:07;;;;;;;20.92;17.12;;;;;;;19.91;100.00;99757.38;1681698;84;21006;-80
2022/08/04 04:33:03;;;;;;;20.90;17.60;;;;;;;19.87;100.00;99758.57;1682215;85;20921;-80
2022/08/04 04:35:56;;;;;;;18.62;16.02;;;;;;;19.91;100.00;99759.56;1683003;83;21104;-84
2022/08/04 04:38:36;;;;;;;27.93;18.07;;;;;;;19.94;100.00;99757.59;1726703;82;20962;-88
2022/08/04 04:41:32;;;;;;;20.60;18.47;;;;;;;20.00;100.00;99763.72;1728354;82;20998;-84
2022/08/04 04:44:33;;;;;;;22.27;18.80;;;;;;;20.05;100.00;99763.59;1716944;82;21136;-81
2022/08/04 04:47:33;;;;;;;26.75;19.67;;;;;;;20.02;100.00;99762.86;1720313;83;20867;-81
2022/08/04 04:50:36;;;;;;;26.20;19.17;;;;;;;19.99;100.00;99767.03;1719964;83;21314;-86
2022/08/04 04:53:46;;;;;;;23.85;19.55;;;;;;;19.93;100.00;99766.89;1684740;85;20940;-84
2022/08/04 04:56:31;;;;;;;19.70;17.52;;;;;;;19.96;100.00;99764.09;1659521;86;21306;-85
2022/08/04 04:59:00;;;;;;;21.17;18.95;;;;;;;20.00;100.00;99764.52;1659266;86;20965;-85
2022/08/04 05:01:47;;;;;;;21.07;18.60;;;;;;;20.04;100.00;99770.19;1686615;83;21015;-82
2022/08/04 05:04:35;;;;;;;23.42;18.90;;;;;;;20.03;100.00;99771.30;1722381;83;21454;-83
2022/08/04 05:07:43;;;;;;;20.40;18.30;;;;;;;20.05;100.00;99769.64;1680497;84;21153;-86
2022/08/04 05:10:40;;;;;;;24.75;18.70;;;;;;;20.11;100.00;99766.45;1693793;83;21016;-84
2022/08/04 05:13:24;;;;;;;21.50;18.32;;;;;;;20.15;100.00;99770.73;1717517;83;20976;-86
2022/08/04 05:15:54;;;;;;;22.67;20.35;;;;;;;20.21;100.00;99776.32;1696640;84;21005;-82
2022/08/04 05:18:26;;;;;;;25.92;18.10;;;;;;;20.20;100.00;99772.78;1695848;84;21099;-83
2022/08/04 05:20:57;;;;;;;21.02;18.80;;;;;;;20.18;100.00;99770.94;1695108;82;21617;-82
2022/08/04 05:23:28;;;;;;;17.45;15.70;;;;;;;20.20;100.00;99774.70;1678936;85;21592;-82
2022/08/04 05:26:01;;;;;;;21.82;18.42;;;;;;;20.21;100.00;99777.12;1679630;85;21028;-81
2022/08/04 05:28:40;;;;;;;22.42;18.15;;;;;;;20.19;100.00;99774.48;1668985;84;20972;-78
2022/08/04 05:31:26;;;;;;;21.80;19.45;;;;;;;20.16;100.00;99782.72;1689171;84;21145;-81
2022/08/04 05:34:14;;;;;;;20.60;18.50;;;;;;;20.16;100.00;99786.81;1680296;84;21192;-83
2022/08/04 05:36:53;;;;;;;20.17;17.42;;;;;;;20.19;100.00;99779.94;1682118;84;20980;-81
2022/08/04 05:39:28;;;;;;;24.90;19.05;;;;;;;20.24;100.00;99781.18;1680303;85;21045;-82
2022/08/04 05:41:56;;;;;;;19.02;17.07;;;;;;;20.31;100.00;99777.47;1680062;84;21025;-84
2022/08/04 05:44:26;;;;;;;18.60;16.87;;;;;;;20.39;100.00;99780.24;1679881;85;21147;-82
2022/08/04 05:46:56;;;;;;;19.35;17.40;;;;;;;20.44;100.00;99782.03;1679890;84;21086;-84
2022/08/04 05:49:23;;;;;;;20.32;16.30;;;;;;;20.49;100.00;99781.91;1679562;84;21108;-82
2022/08/04 05:51:51;;;;;;;19.90;17.77;;;;;;;20.53;100.00;99784.25;1679518;84;21506;-85
2022/08/04 05:54:23;;;;;;;19.05;17.02;;;;;;;20.57;100.00;99785.27;1679806;85;21533;-85
2022/08/04 05:56:50;;;;;;;18.25;16.30;;;;;;;20.61;100.00;99786.25;1678880;85;21736;-84
2022/08/04 05:59:31;;;;;;;22.80;17.87;;;;;;;20.70;100.00;99786.28;1679765;84;21068;-84
2022/08/04 06:01:52;;;;;;;17.98;15.60;;;;;;;20.77;100.00;99790.72;1676356;84;20998;-83
2022/08/04 06:04:23;;;;;;;18.77;16.25;;;;;;;20.83;100.00;99791.65;1690786;84;21004;-84
2022/08/04 06:06:50;;;;;;;21.77;19.62;;;;;;;20.94;100.00;99790.81;1679814;84;20961;-81
2022/08/04 06:09:17;;;;;;;18.75;16.82;;;;;;;20.97;100.00;99795.64;1689626;84;21137;-83
2022/08/04 06:11:45;;;;;;;18.52;16.80;;;;;;;21.02;100.00;99796.06;1679504;84;21136;-82
2022/08/04 06:14:14;;;;;;;18.80;16.90;;;;;;;21.03;100.00;99794.39;1689445;84;21060;-82
2022/08/04 06:16:42;;;;;;;20.30;18.42;;;;;;;21.02;100.00;99793.33;1675644;85;21070;-84
2022/08/04 06:19:14;;;;;;;18.05;16.20;;;;;;;20.96;100.00;99796.76;1650909;85;21510;-82
2022/08/04 06:21:47;;;;;;;18.87;17.07;;;;;;;20.98;100.00;99796.45;1671523;84;21096;-82
2022/08/04 06:24:23;;;;;;;17.85;15.98;;;;;;;21.00;100.00;99793.66;1657033;85;21013;-83
2022/08/04 06:26:53;;;;;;;19.82;17.15;;;;;;;21.04;100.00;99799.30;1678140;85;21100;-84
2022/08/04 06:29:34;;;;;;;18.63;16.70;;;;;;;21.07;100.00;99795.92;1678243;84;21373;-83
2022/08/04 06:32:12;;;;;;;19.30;16.25;;;;;;;21.10;100.00;99793.34;1677845;84;21494;-86
2022/08/04 06:34:34;;;;;;;20.62;18.48;;;;;;;21.06;100.00;99799.21;1666131;85;21012;-83
2022/08/04 06:37:02;;;;;;;19.55;15.35;;;;;;;21.04;100.00;99795.20;1667666;85;21022;-83
2022/08/04 06:39:37;;;;;;;18.45;16.40;;;;;;;20.99;100.00;99800.25;1679581;84;21024;-83
2022/08/04 06:42:06;;;;;;;18.50;16.45;;;;;;;20.99;100.00;99793.41;1680670;84;21057;-84
2022/08/04 06:44:35;;;;;;;23.35;19.42;;;;;;;21.05;100.00;99796.81;1680855;83;21099;-84
2022/08/04 06:47:04;;;;;;;24.72;16.60;;;;;;;21.10;100.00;99787.10;1668310;85;21824;-83
2022/08/04 06:49:32;;;;;;;20.40;18.27;;;;;;;21.19;100.00;99780.56;1646041;85;21526;-82
2022/08/04 06:52:03;;;;;;;17.67;15.88;;;;;;;21.29;100.00;99789.81;1645903;85;20984;-79
2022/08/04 06:54:30;;;;;;;18.50;16.07;;;;;;;21.40;100.00;99790.89;1634416;85;20922;-83
2022/08/04 06:57:02;;;;;;;18.17;16.02;;;;;;;21.48;100.00;99784.64;1680836;85;21065;-84
2022/08/04 06:59:29;;;;;;;24.63;16.77;;;;;;;21.54;100.00;99784.72;1679651;84;21387;-82
2022/08/04 07:01:57;;;;;;;22.35;17.85;;;;;;;21.48;99.75;99782.72;1679487;85;21023;-84
2022/08/04 07:04:27;;;;;;;16.37;14.68;;;;;;;21.46;99.92;99785.52;1682191;84;21055;-83
2022/08/04 07:06:54;;;;;;;19.37;16.67;;;;;;;21.50;99.90;99789.22;1668004;85;21128;-82
2022/08/04 07:09:22;;;;;;;17.25;15.48;;;;;;;21.54;99.40;99786.89;1679763;84;21633;-85
2022/08/04 07:11:48;;;;;;;16.52;14.73;;;;;;;21.58;98.64;99778.87;1679664;85;21138;-84
2022/08/04 07:14:16;;;;;;;17.05;15.30;;;;;;;21.59;98.20;99789.48;1689604;84;20921;-85
2022/08/04 07:16:46;;;;;;;25.45;16.80;;;;;;;21.61;98.10;99785.87;1679722;84;21033;-87
2022/08/04 07:19:15;;;;;;;17.62;15.78;;;;;;;21.59;97.66;99795.51;1679994;85;21520;-86
2022/08/04 07:21:44;;;;;;;17.70;15.25;;;;;;;21.58;98.00;99806.24;1690603;84;21397;-85
2022/08/04 07:24:14;;;;;;;29.50;15.85;;;;;;;21.61;98.14;99799.55;1679601;85;21899;-84
2022/08/04 07:26:41;;;;;;;20.37;15.20;;;;;;;21.66;97.89;99799.40;1679643;85;21028;-83
2022/08/04 07:29:11;;;;;;;20.92;16.42;;;;;;;21.72;97.62;99792.66;1679460;84;21518;-84
2022/08/04 07:31:44;;;;;;;16.10;14.47;;;;;;;21.77;97.34;99794.98;1678164;84;21057;-86
2022/08/04 07:34:12;;;;;;;15.28;13.80;;;;;;;21.84;97.24;99795.30;1667303;85;21000;-85
2022/08/04 07:36:44;;;;;;;18.95;16.48;;;;;;;21.90;96.66;99791.28;1712346;83;21582;-86
2022/08/04 07:39:15;;;;;;;16.45;13.93;;;;;;;21.96;95.87;99788.66;1660456;83;21699;-86
2022/08/04 07:41:45;;;;;;;20.30;14.33;;;;;;;21.98;95.12;99794.04;1689958;83;21099;-84
2022/08/04 07:44:16;;;;;;;22.80;16.20;;;;;;;21.96;94.85;99788.09;1718958;83;21012;-86
2022/08/04 07:46:46;;;;;;;19.85;14.33;;;;;;;21.99;94.54;99783.89;1679668;83;21216;-83
2022/08/04 07:49:12;;;;;;;19.12;14.60;;;;;;;21.99;93.79;99797.03;1662996;83;21612;-87
2022/08/04 07:51:41;;;;;;;20.15;14.53;;;;;;;21.95;94.04;99789.78;1678774;84;20961;-84
2022/08/04 07:54:09;;;;;;;14.35;12.95;;;;;;;21.97;93.62;99794.35;1690500;84;21650;-85
2022/08/04 07:56:43;;;;;;;14.00;12.53;;;;;;;22.02;93.83;99796.93;1677910;85;21070;-84
2022/08/04 07:59:13;;;;;;;14.83;13.22;;;;;;;22.08;93.16;99799.20;1680290;84;21513;-83
2022/08/04 08:01:42;;;;;;;15.80;14.28;;;;;;;22.16;92.39;99792.08;1710649;83;21286;-84
2022/08/04 08:04:10;;;;;;;17.60;12.58;;;;;;;22.23;92.20;99791.05;1689678;84;21560;-84
2022/08/04 08:06:43;;;;;;;14.70;13.13;;;;;;;22.33;91.58;99791.27;1660217;86;21110;-86
2022/08/04 08:09:20;;;;;;;14.78;12.65;;;;;;;22.42;90.27;99792.86;1642711;85;21039;-85
2022/08/04 08:11:49;;;;;;;16.70;13.75;;;;;;;22.51;88.80;99790.09;1665921;83;21096;-87
2022/08/04 08:14:18;;;;;;;16.27;12.58;;;;;;;22.57;87.80;99796.46;1692869;84;21045;-86
2022/08/04 08:16:46;;;;;;;12.78;11.57;;;;;;;22.60;86.15;99796.36;1685904;85;21092;-89
2022/08/04 08:19:14;;;;;;;13.83;12.40;;;;;;;22.66;86.22;99794.25;1710831;82;21679;-83
2022/08/04 08:21:48;;;;;;;13.35;12.03;;;;;;;22.67;85.35;99799.42;1718922;81;21063;-83
2022/08/04 08:24:15;;;;;;;15.53;11.70;;;;;;;22.74;84.98;99801.66;1718921;83;21047;-83
2022/08/04 08:26:42;;;;;;;12.85;11.63;;;;;;;22.83;84.46;99803.25;1680356;84;21590;-84
2022/08/04 08:29:11;;;;;;;15.30;13.18;;;;;;;22.89;83.42;99797.83;1667336;85;20949;-82
2022/08/04 08:31:42;;;;;;;14.18;12.55;;;;;;;22.94;83.60;99798.21;1679200;84;21073;-77
2022/08/04 08:34:13;;;;;;;14.73;11.45;;;;;;;23.04;83.32;99791.80;1680444;84;20988;-78
2022/08/04 08:36:56;;;;;;;13.05;11.75;;;;;;;23.19;81.89;99797.86;1671067;84;21015;-78
2022/08/04 08:39:38;;;;;;;;;;;;;;;23.26;81.38;99796.19;1680802;84;21097;-80
2022/08/04 08:42:35;;;;;;;16.05;14.25;;;;;;;23.39;80.59;99788.30;1679707;85;20117;-81
2022/08/04 08:45:23;;;;;;;14.53;13.22;;;;;;;23.52;80.34;99789.78;1679610;84;21125;-78
2022/08/04 08:48:11;;;;;;;14.05;12.65;;;;;;;23.62;79.68;99784.70;1659545;85;21015;-78
2022/08/04 08:51:00;;;;;;;11.78;10.48;;;;;;;23.76;79.37;99784.44;1678448;83;21041;-80
2022/08/04 08:53:54;;;;;;;12.58;11.28;;;;;;;23.91;78.53;99779.71;1686300;83;21106;-82
2022/08/04 08:56:36;;;;;;;17.35;11.65;;;;;;;24.01;76.76;99775.19;1656301;83;21082;-81
2022/08/04 08:59:19;;;;;;;10.80;9.78;;;;;;;24.06;76.04;99777.72;1698480;82;21087;-80
2022/08/04 09:02:17;;;;;;;10.93;9.70;;;;;;;24.09;75.78;99767.98;1720836;82;20991;-78
2022/08/04 09:05:17;;;;;;;14.28;10.95;;;;;;;24.15;75.17;99775.70;1722045;81;21059;-77
2022/08/04 09:08:14;;;;;;;11.95;10.85;;;;;;;24.22;74.86;99777.34;1730877;82;21713;-82
2022/08/04 09:10:50;;;;;;;15.40;12.68;;;;;;;24.20;74.69;99777.46;1728501;82;20889;-82
2022/08/04 09:13:31;;;;;;;12.47;11.30;;;;;;;24.20;74.44;99785.70;1710288;82;21037;-81
2022/08/04 09:16:34;;;;;;;13.48;12.25;;;;;;;24.20;74.00;99781.59;1709026;82;21063;-81
2022/08/04 09:19:18;;;;;;;10.78;9.20;;;;;;;24.19;74.54;99783.52;1708817;83;21020;-81
2022/08/04 09:22:02;;;;;;;11.55;10.23;;;;;;;24.27;74.22;99783.20;1718475;82;21440;-84
2022/08/04 09:25:03;;;;;;;10.48;9.55;;;;;;;24.35;74.15;99780.14;1699966;83;21541;-80
2022/08/04 09:27:54;;;;;;;13.60;9.88;;;;;;;24.44;73.34;99786.36;1718274;83;21171;-81
2022/08/04 09:30:31;;;;;;;12.73;9.65;;;;;;;24.56;71.87;99788.55;1729672;82;21124;-80
2022/08/04 09:33:05;;;;;;;13.60;9.98;;;;;;;24.62;71.48;99779.52;1724672;82;20930;-81
2022/08/04 09:36:22;;;;;;;11.15;10.15;;;;;;;24.72;71.78;99774.39;1708938;83;21956;-83
2022/08/04 09:39:15;;;;;;;11.68;9.35;;;;;;;24.81;71.36;99778.40;1718438;83;20995;-83
2022/08/04 09:42:16;;;;;;;10.82;9.20;;;;;;;24.87;70.38;99774.89;1680117;83;21088;-83
2022/08/04 09:45:06;;;;;;;11.53;10.50;;;;;;;24.94;70.32;99780.64;1658959;85;21004;-82
2022/08/04 09:47:52;;;;;;;16.48;10.68;;;;;;;25.01;70.36;99776.16;1679450;83;21085;-81
2022/08/04 09:50:39;;;;;;;16.12;11.40;;;;;;;25.04;70.15;99775.46;1708012;82;21257;-80
2022/08/04 09:53:27;;;;;;;11.40;9.98;;;;;;;25.06;70.56;99775.94;1746728;82;20872;-80
2022/08/04 09:56:17;;;;;;;9.85;8.93;;;;;;;25.12;70.56;99777.31;1723655;82;21004;-80
2022/08/04 09:59:08;;;;;;;10.25;9.23;;;;;;;25.16;69.97;99789.81;1679417;85;21095;-78
2022/08/04 10:01:36;;;;;;;11.18;10.08;;;;;;;25.09;69.92;99784.87;1679712;84;21025;-78
2022/08/04 10:04:12;;;;;;;17.42;10.63;;;;;;;25.02;70.09;99786.03;1689463;83;21386;-81
2022/08/04 10:07:15;;;;;;;10.68;9.53;;;;;;;24.99;70.40;99783.95;1710432;83;21074;-79
2022/08/04 10:10:04;;;;;;;10.93;9.83;;;;;;;24.93;70.94;99778.46;1719951;82;21545;-80
2022/08/04 10:12:56;;;;;;;10.70;9.58;;;;;;;24.89;71.56;99782.24;1679214;84;21327;-81
2022/08/04 10:15:49;;;;;;;10.48;9.68;;;;;;;24.98;71.67;99774.67;1685405;84;21576;-80
2022/08/04 10:18:49;;;;;;;9.93;8.98;;;;;;;25.11;71.47;99783.16;1656699;86;21119;-82
2022/08/04 10:21:25;;;;;;;9.03;8.08;;;;;;;25.18;71.04;99778.67;1671369;85;21001;-81
2022/08/04 10:24:28;;;;;;;11.08;9.33;;;;;;;25.14;70.11;99779.13;1667910;85;33746;-79
2022/08/04 10:27:21;;;;;;;10.23;9.23;;;;;;;25.17;70.14;99769.40;1667840;85;21160;-78
2022/08/04 10:29:51;;;;;;;11.00;9.93;;;;;;;25.22;69.77;99773.87;1679256;84;21194;-81
2022/08/04 10:32:32;;;;;;;11.00;9.65;;;;;;;25.26;69.76;99773.41;1679168;85;21498;-78
2022/08/04 10:35:13;;;;;;;11.35;8.58;;;;;;;25.36;69.82;99768.80;1646785;87;21134;-79
2022/08/04 10:38:15;;;;;;;10.70;8.93;;;;;;;25.48;69.23;99764.64;1668170;85;20961;-80
2022/08/04 10:40:49;;;;;;;9.50;8.60;;;;;;;25.50;68.55;99759.03;1686092;84;22591;-78
2022/08/04 10:43:47;;;;;;;11.57;10.58;;;;;;;25.45;68.26;99759.27;1679590;84;21541;-77
2022/08/04 10:46:25;;;;;;;9.75;8.85;;;;;;;25.41;68.57;99761.69;1679563;84;21112;-80
2022/08/04 10:49:03;;;;;;;9.55;8.25;;;;;;;25.41;69.00;99773.52;1667634;85;21056;-75
2022/08/04 10:51:45;;;;;;;9.65;8.68;;;;;;;25.41;69.20;99765.81;1671157;83;21010;-79
2022/08/04 10:54:28;;;;;;;9.95;8.88;;;;;;;25.38;69.29;99764.55;1709189;83;20992;-80
2022/08/04 10:57:04;;;;;;;14.43;9.15;;;;;;;25.42;69.36;99757.80;1709668;82;21718;-85
2022/08/04 10:59:53;;;;;;;8.78;7.97;;;;;;;25.56;69.94;99754.89;1698091;83;21225;-79
2022/08/04 11:03:07;;;;;;;9.83;8.80;;;;;;;25.80;69.38;99745.78;1677493;85;21000;-79
2022/08/04 11:05:57;;;;;;;9.45;8.65;;;;;;;25.95;67.94;99745.02;1719161;83;21009;-79
2022/08/04 11:08:33;;;;;;;16.52;9.28;;;;;;;26.04;66.69;99734.63;1713288;83;21016;-78
2022/08/04 11:11:08;;;;;;;9.93;8.50;;;;;;;26.07;66.67;99733.14;1701708;83;21565;-80
2022/08/04 11:13:49;;;;;;;8.45;7.65;;;;;;;26.05;64.06;99736.81;1698031;83;21349;-78
2022/08/04 11:16:20;;;;;;;9.20;8.30;;;;;;;26.01;63.73;99741.44;1658227;85;21043;-77
2022/08/04 11:19:11;;;;;;;8.95;8.03;;;;;;;25.92;66.31;99745.73;1688609;85;21016;-78
2022/08/04 11:21:45;;;;;;;10.30;9.30;;;;;;;25.88;67.08;99748.96;1717100;83;22251;-79
2022/08/04 11:24:35;;;;;;;10.03;8.35;;;;;;;25.87;66.62;99755.62;1709249;83;21071;-78
2022/08/04 11:27:17;;;;;;;9.65;8.75;;;;;;;25.78;67.13;99748.65;1718487;83;21907;-78
2022/08/04 11:30:06;;;;;;;11.97;9.70;;;;;;;25.74;67.64;99739.48;1668931;83;21063;-78
2022/08/04 11:32:50;;;;;;;10.88;8.63;;;;;;;25.80;68.01;99732.58;1718684;83;21018;-78
2022/08/04 11:35:30;;;;;;;10.18;9.25;;;;;;;25.92;67.88;99719.54;1679513;84;21616;-80
2022/08/04 11:38:09;;;;;;;10.18;8.90;;;;;;;26.10;67.62;99728.30;1678435;84;21029;-77
2022/08/04 11:40:41;;;;;;;8.93;8.23;;;;;;;26.30;66.82;99716.84;1678085;85;21228;-80
2022/08/04 11:43:33;;;;;;;10.78;9.03;;;;;;;26.46;66.21;99719.05;1697259;83;21030;-80
2022/08/04 11:46:08;;;;;;;9.23;8.40;;;;;;;26.61;65.77;99717.45;1662037;86;20991;-78
2022/08/04 11:48:40;;;;;;;11.28;8.65;;;;;;;26.79;64.75;99717.31;1641699;87;21028;-83
2022/08/04 11:51:08;;;;;;;9.78;8.78;;;;;;;26.86;63.60;99714.16;1661274;86;21089;-85
2022/08/04 11:53:39;;;;;;;9.23;7.85;;;;;;;26.80;63.05;99708.69;1657622;86;20973;-78
2022/08/04 11:56:12;;;;;;;8.95;7.95;;;;;;;26.77;62.06;99711.34;1657163;84;21071;-76
2022/08/04 11:58:40;;;;;;;8.90;7.60;;;;;;;26.75;61.82;99714.47;1659418;86;21047;-76
2022/08/04 12:01:39;;;;;;;9.53;7.60;;;;;;;26.76;60.72;99714.67;1659524;86;21051;-78
2022/08/04 12:04:43;;;;;;;13.55;8.53;;;;;;;26.78;60.17;99713.75;1635987;86;21138;-79
2022/08/04 12:07:16;;;;;;;8.80;8.10;;;;;;;26.79;60.48;99720.08;1641485;86;21124;-76
2022/08/04 12:10:42;;;;;;;8.98;7.75;;;;;;;26.69;62.31;99729.69;1660629;86;21132;-80
2022/08/04 12:13:37;;;;;;;8.60;7.80;;;;;;;26.59;63.60;99736.31;1643774;85;21593;-79
2022/08/04 12:16:12;;;;;;;9.23;8.28;;;;;;;26.23;65.16;99724.38;1644102;86;21055;-76
2022/08/04 12:18:43;;;;;;;11.05;7.22;;;;;;;26.00;65.92;99725.47;1657943;85;21107;-74
2022/08/04 12:21:34;;;;;;;8.85;6.55;;;;;;;25.79;64.96;99743.37;1642523;85;21094;-81
2022/08/04 12:24:07;;;;;;;7.28;6.67;;;;;;;25.68;64.89;99730.66;1605318;87;20952;-83